sensor_id;sensor_type;location;lat;lon;timestamp;P1;durP1;ratioP1;P2;durP2;ratioP2
20928;SDS011;21895;47.072;15.132;2023-05-03T00:02:05;1.60;;;1.50;;
20928;SDS011;21895;47.072;15.132;2023-05-03T00:04:32;2.53;;;2.00;;
20928;SDS011;21895;47.072;15.132;2023-05-03T00:06:59;3.77;;;1.60;;
20928;SDS011;21895;47.072;15.132;2023-05-03T00:09:25;2.50;;;1.90;;
20928;SDS011;21895;47.072;15.132;2023-05-03T00:11:52;4.83;;;1.60;;
20928;SDS011;21895;47.072;15.132;2023-05-03T00:14:18;1.53;;;1.43;;
20928;SDS011;21895;47.072;15.132;2023-05-03T00:16:45;2.60;;;1.70;;
20928;SDS011;21895;47.072;15.132;2023-05-03T00:19:11;1.40;;;1.20;;
20928;SDS011;21895;47.072;15.132;2023-05-03T00:21:56;1.77;;;1.43;;
20928;SDS011;21895;47.072;15.132;2023-05-03T00:24:22;5.73;;;1.80;;
20928;SDS011;21895;47.072;15.132;2023-05-03T00:26:49;1.90;;;1.43;;
20928;SDS011;21895;47.072;15.132;2023-05-03T00:29:15;3.17;;;1.73;;
20928;SDS011;21895;47.072;15.132;2023-05-03T00:31:43;4.50;;;1.77;;
20928;SDS011;21895;47.072;15.132;2023-05-03T00:34:09;2.20;;;1.80;;
20928;SDS011;21895;47.072;15.132;2023-05-03T00:36:36;2.47;;;2.10;;
20928;SDS011;21895;47.072;15.132;2023-05-03T00:39:02;2.97;;;1.70;;
20928;SDS011;21895;47.072;15.132;2023-05-03T00:41:29;3.70;;;1.40;;
20928;SDS011;21895;47.072;15.132;2023-05-03T00:43:55;3.90;;;1.70;;
20928;SDS011;21895;47.072;15.132;2023-05-03T00:46:22;1.63;;;1.40;;
20928;SDS011;21895;47.072;15.132;2023-05-03T00:48:48;1.50;;;1.40;;
20928;SDS011;21895;47.072;15.132;2023-05-03T00:51:15;2.37;;;1.50;;
20928;SDS011;21895;47.072;15.132;2023-05-03T00:53:45;1.90;;;1.50;;
20928;SDS011;21895;47.072;15.132;2023-05-03T00:56:11;2.50;;;1.90;;
20928;SDS011;21895;47.072;15.132;2023-05-03T00:58:45;3.30;;;2.20;;
20928;SDS011;21895;47.072;15.132;2023-05-03T01:01:15;2.87;;;2.20;;
20928;SDS011;21895;47.072;15.132;2023-05-03T01:03:42;4.20;;;2.40;;
20928;SDS011;21895;47.072;15.132;2023-05-03T01:06:23;5.17;;;2.10;;
20928;SDS011;21895;47.072;15.132;2023-05-03T01:10:38;3.10;;;2.10;;
20928;SDS011;21895;47.072;15.132;2023-05-03T01:19:13;3.00;;;1.80;;
20928;SDS011;21895;47.072;15.132;2023-05-03T01:23:27;2.33;;;1.97;;
20928;SDS011;21895;47.072;15.132;2023-05-03T01:26:28;2.43;;;2.03;;
20928;SDS011;21895;47.072;15.132;2023-05-03T01:28:55;3.60;;;2.20;;
20928;SDS011;21895;47.072;15.132;2023-05-03T01:34:54;2.87;;;1.97;;
20928;SDS011;21895;47.072;15.132;2023-05-03T01:38:17;2.30;;;1.87;;
20928;SDS011;21895;47.072;15.132;2023-05-03T01:40:47;6.27;;;2.00;;
20928;SDS011;21895;47.072;15.132;2023-05-03T01:43:18;4.63;;;2.20;;
20928;SDS011;21895;47.072;15.132;2023-05-03T01:45:45;2.30;;;1.93;;
20928;SDS011;21895;47.072;15.132;2023-05-03T01:48:14;3.57;;;2.10;;
20928;SDS011;21895;47.072;15.132;2023-05-03T01:50:43;2.17;;;1.97;;
20928;SDS011;21895;47.072;15.132;2023-05-03T01:53:10;3.90;;;1.60;;
20928;SDS011;21895;47.072;15.132;2023-05-03T01:55:36;7.63;;;2.03;;
20928;SDS011;21895;47.072;15.132;2023-05-03T01:58:03;2.60;;;2.20;;
20928;SDS011;21895;47.072;15.132;2023-05-03T02:00:31;20.63;;;2.67;;
20928;SDS011;21895;47.072;15.132;2023-05-03T02:02:58;2.30;;;1.80;;
20928;SDS011;21895;47.072;15.132;2023-05-03T02:05:24;5.33;;;2.00;;
20928;SDS011;21895;47.072;15.132;2023-05-03T02:07:51;3.60;;;1.60;;
20928;SDS011;21895;47.072;15.132;2023-05-03T02:10:17;1.97;;;1.70;;
20928;SDS011;21895;47.072;15.132;2023-05-03T02:12:44;2.40;;;1.70;;
20928;SDS011;21895;47.072;15.132;2023-05-03T02:15:11;3.70;;;2.03;;
20928;SDS011;21895;47.072;15.132;2023-05-03T02:17:39;2.60;;;1.97;;
20928;SDS011;21895;47.072;15.132;2023-05-03T02:20:08;3.67;;;1.70;;
20928;SDS011;21895;47.072;15.132;2023-05-03T02:22:35;3.33;;;1.60;;
20928;SDS011;21895;47.072;15.132;2023-05-03T02:25:01;3.27;;;1.80;;
20928;SDS011;21895;47.072;15.132;2023-05-03T02:27:28;2.20;;;1.63;;
20928;SDS011;21895;47.072;15.132;2023-05-03T02:29:55;7.57;;;1.90;;
20928;SDS011;21895;47.072;15.132;2023-05-03T02:32:21;2.53;;;1.77;;
20928;SDS011;21895;47.072;15.132;2023-05-03T02:34:48;2.37;;;1.67;;
20928;SDS011;21895;47.072;15.132;2023-05-03T02:37:15;4.03;;;1.70;;
20928;SDS011;21895;47.072;15.132;2023-05-03T02:39:41;5.80;;;1.77;;
20928;SDS011;21895;47.072;15.132;2023-05-03T02:42:08;4.43;;;1.70;;
20928;SDS011;21895;47.072;15.132;2023-05-03T02:44:35;3.40;;;2.00;;
20928;SDS011;21895;47.072;15.132;2023-05-03T02:47:01;2.47;;;1.90;;
20928;SDS011;21895;47.072;15.132;2023-05-03T02:49:28;3.30;;;1.70;;
20928;SDS011;21895;47.072;15.132;2023-05-03T02:51:54;2.80;;;1.80;;
20928;SDS011;21895;47.072;15.132;2023-05-03T02:54:21;1.80;;;1.70;;
20928;SDS011;21895;47.072;15.132;2023-05-03T02:56:47;6.73;;;1.93;;
20928;SDS011;21895;47.072;15.132;2023-05-03T02:59:14;2.33;;;1.83;;
20928;SDS011;21895;47.072;15.132;2023-05-03T03:01:40;2.37;;;1.57;;
20928;SDS011;21895;47.072;15.132;2023-05-03T03:04:08;2.20;;;1.83;;
20928;SDS011;21895;47.072;15.132;2023-05-03T03:06:35;2.07;;;1.60;;
20928;SDS011;21895;47.072;15.132;2023-05-03T03:09:01;1.60;;;1.50;;
20928;SDS011;21895;47.072;15.132;2023-05-03T03:11:29;1.60;;;1.40;;
20928;SDS011;21895;47.072;15.132;2023-05-03T03:13:56;4.43;;;1.50;;
20928;SDS011;21895;47.072;15.132;2023-05-03T03:16:22;5.10;;;2.00;;
20928;SDS011;21895;47.072;15.132;2023-05-03T03:18:49;9.97;;;3.27;;
20928;SDS011;21895;47.072;15.132;2023-05-03T03:21:15;3.07;;;1.93;;
20928;SDS011;21895;47.072;15.132;2023-05-03T03:23:42;3.30;;;2.10;;
20928;SDS011;21895;47.072;15.132;2023-05-03T03:26:08;3.73;;;1.70;;
20928;SDS011;21895;47.072;15.132;2023-05-03T03:28:35;1.87;;;1.70;;
20928;SDS011;21895;47.072;15.132;2023-05-03T03:31:01;6.37;;;1.70;;
20928;SDS011;21895;47.072;15.132;2023-05-03T03:33:28;3.63;;;1.40;;
20928;SDS011;21895;47.072;15.132;2023-05-03T03:35:55;2.17;;;1.57;;
20928;SDS011;21895;47.072;15.132;2023-05-03T03:38:21;1.93;;;1.70;;
20928;SDS011;21895;47.072;15.132;2023-05-03T03:40:48;3.23;;;1.67;;
20928;SDS011;21895;47.072;15.132;2023-05-03T03:43:14;4.43;;;1.50;;
20928;SDS011;21895;47.072;15.132;2023-05-03T03:45:41;2.60;;;1.60;;
20928;SDS011;21895;47.072;15.132;2023-05-03T03:48:07;3.83;;;1.77;;
20928;SDS011;21895;47.072;15.132;2023-05-03T03:50:35;6.23;;;1.70;;
20928;SDS011;21895;47.072;15.132;2023-05-03T03:53:02;3.43;;;1.53;;
20928;SDS011;21895;47.072;15.132;2023-05-03T03:55:28;11.23;;;1.70;;
20928;SDS011;21895;47.072;15.132;2023-05-03T03:57:56;7.10;;;1.50;;
20928;SDS011;21895;47.072;15.132;2023-05-03T04:00:22;1.60;;;1.50;;
20928;SDS011;21895;47.072;15.132;2023-05-03T04:02:49;1.83;;;1.50;;
20928;SDS011;21895;47.072;15.132;2023-05-03T04:05:16;2.03;;;1.53;;
20928;SDS011;21895;47.072;15.132;2023-05-03T04:07:42;2.93;;;1.70;;
20928;SDS011;21895;47.072;15.132;2023-05-03T04:10:09;8.07;;;1.50;;
20928;SDS011;21895;47.072;15.132;2023-05-03T04:12:35;1.67;;;1.40;;
20928;SDS011;21895;47.072;15.132;2023-05-03T04:15:02;1.83;;;1.53;;
20928;SDS011;21895;47.072;15.132;2023-05-03T04:17:30;5.37;;;1.50;;
20928;SDS011;21895;47.072;15.132;2023-05-03T04:20:00;3.50;;;1.83;;
20928;SDS011;21895;47.072;15.132;2023-05-03T04:22:35;5.33;;;1.50;;
20928;SDS011;21895;47.072;15.132;2023-05-03T04:25:04;1.57;;;1.47;;
20928;SDS011;21895;47.072;15.132;2023-05-03T04:27:33;2.90;;;1.70;;
20928;SDS011;21895;47.072;15.132;2023-05-03T04:30:00;3.83;;;1.80;;
20928;SDS011;21895;47.072;15.132;2023-05-03T04:32:27;2.50;;;1.80;;
20928;SDS011;21895;47.072;15.132;2023-05-03T04:34:53;5.60;;;2.20;;
20928;SDS011;21895;47.072;15.132;2023-05-03T04:37:21;3.77;;;2.47;;
20928;SDS011;21895;47.072;15.132;2023-05-03T04:39:48;5.27;;;2.93;;
20928;SDS011;21895;47.072;15.132;2023-05-03T04:42:14;5.37;;;2.73;;
20928;SDS011;21895;47.072;15.132;2023-05-03T04:44:41;6.83;;;3.20;;
20928;SDS011;21895;47.072;15.132;2023-05-03T04:47:07;5.47;;;3.10;;
20928;SDS011;21895;47.072;15.132;2023-05-03T04:49:37;3.13;;;2.33;;
20928;SDS011;21895;47.072;15.132;2023-05-03T04:52:04;5.57;;;3.33;;
20928;SDS011;21895;47.072;15.132;2023-05-03T04:54:31;5.57;;;3.50;;
20928;SDS011;21895;47.072;15.132;2023-05-03T04:56:57;3.43;;;2.40;;
20928;SDS011;21895;47.072;15.132;2023-05-03T04:59:24;12.53;;;2.77;;
20928;SDS011;21895;47.072;15.132;2023-05-03T05:01:51;2.83;;;2.27;;
20928;SDS011;21895;47.072;15.132;2023-05-03T05:04:17;2.77;;;2.47;;
20928;SDS011;21895;47.072;15.132;2023-05-03T05:06:44;3.80;;;2.40;;
20928;SDS011;21895;47.072;15.132;2023-05-03T05:09:23;4.47;;;2.57;;
20928;SDS011;21895;47.072;15.132;2023-05-03T05:11:53;3.93;;;2.37;;
20928;SDS011;21895;47.072;15.132;2023-05-03T05:14:22;8.07;;;2.20;;
20928;SDS011;21895;47.072;15.132;2023-05-03T05:16:50;3.10;;;2.30;;
20928;SDS011;21895;47.072;15.132;2023-05-03T05:19:17;2.00;;;1.80;;
20928;SDS011;21895;47.072;15.132;2023-05-03T05:21:44;2.37;;;1.80;;
20928;SDS011;21895;47.072;15.132;2023-05-03T05:24:10;2.10;;;1.73;;
20928;SDS011;21895;47.072;15.132;2023-05-03T05:26:37;3.07;;;1.90;;
20928;SDS011;21895;47.072;15.132;2023-05-03T05:29:04;3.23;;;1.93;;
20928;SDS011;21895;47.072;15.132;2023-05-03T05:31:30;2.50;;;2.17;;
20928;SDS011;21895;47.072;15.132;2023-05-03T05:33:57;2.20;;;1.90;;
20928;SDS011;21895;47.072;15.132;2023-05-03T05:36:24;3.43;;;2.10;;
20928;SDS011;21895;47.072;15.132;2023-05-03T05:38:50;3.00;;;2.33;;
20928;SDS011;21895;47.072;15.132;2023-05-03T05:41:17;2.80;;;2.30;;
20928;SDS011;21895;47.072;15.132;2023-05-03T05:43:44;4.07;;;2.50;;
20928;SDS011;21895;47.072;15.132;2023-05-03T05:46:10;8.07;;;2.40;;
20928;SDS011;21895;47.072;15.132;2023-05-03T05:48:37;5.27;;;2.97;;
20928;SDS011;21895;47.072;15.132;2023-05-03T05:51:05;4.47;;;2.80;;
20928;SDS011;21895;47.072;15.132;2023-05-03T05:53:33;2.70;;;2.20;;
20928;SDS011;21895;47.072;15.132;2023-05-03T05:56:00;5.00;;;2.70;;
20928;SDS011;21895;47.072;15.132;2023-05-03T05:58:26;5.03;;;2.30;;
20928;SDS011;21895;47.072;15.132;2023-05-03T06:00:56;10.40;;;1.80;;
20928;SDS011;21895;47.072;15.132;2023-05-03T06:03:25;2.23;;;1.70;;
20928;SDS011;21895;47.072;15.132;2023-05-03T06:05:52;1.83;;;1.63;;
20928;SDS011;21895;47.072;15.132;2023-05-03T06:08:19;2.50;;;1.93;;
20928;SDS011;21895;47.072;15.132;2023-05-03T06:10:45;2.63;;;1.97;;
20928;SDS011;21895;47.072;15.132;2023-05-03T06:13:12;4.30;;;2.27;;
20928;SDS011;21895;47.072;15.132;2023-05-03T06:15:39;6.13;;;3.67;;
20928;SDS011;21895;47.072;15.132;2023-05-03T06:18:06;3.77;;;2.60;;
20928;SDS011;21895;47.072;15.132;2023-05-03T06:20:33;2.77;;;2.03;;
20928;SDS011;21895;47.072;15.132;2023-05-03T06:22:59;2.87;;;1.90;;
20928;SDS011;21895;47.072;15.132;2023-05-03T06:25:26;4.20;;;2.57;;
20928;SDS011;21895;47.072;15.132;2023-05-03T06:27:53;3.90;;;2.07;;
20928;SDS011;21895;47.072;15.132;2023-05-03T06:30:19;3.13;;;2.00;;
20928;SDS011;21895;47.072;15.132;2023-05-03T06:32:48;4.63;;;1.60;;
20928;SDS011;21895;47.072;15.132;2023-05-03T06:35:14;2.87;;;1.80;;
20928;SDS011;21895;47.072;15.132;2023-05-03T06:37:42;5.73;;;1.40;;
20928;SDS011;21895;47.072;15.132;2023-05-03T06:40:10;3.17;;;1.83;;
20928;SDS011;21895;47.072;15.132;2023-05-03T06:42:37;3.30;;;2.00;;
20928;SDS011;21895;47.072;15.132;2023-05-03T06:45:03;5.00;;;1.53;;
20928;SDS011;21895;47.072;15.132;2023-05-03T06:47:32;3.30;;;1.40;;
20928;SDS011;21895;47.072;15.132;2023-05-03T06:49:58;1.58;;;1.48;;
20928;SDS011;21895;47.072;15.132;2023-05-03T06:52:25;5.90;;;1.80;;
20928;SDS011;21895;47.072;15.132;2023-05-03T06:54:51;3.50;;;1.97;;
20928;SDS011;21895;47.072;15.132;2023-05-03T06:57:18;3.05;;;2.00;;
20928;SDS011;21895;47.072;15.132;2023-05-03T06:59:48;6.28;;;1.80;;
20928;SDS011;21895;47.072;15.132;2023-05-03T07:02:14;6.45;;;2.20;;
20928;SDS011;21895;47.072;15.132;2023-05-03T07:04:42;7.32;;;2.10;;
20928;SDS011;21895;47.072;15.132;2023-05-03T07:07:09;3.20;;;2.20;;
20928;SDS011;21895;47.072;15.132;2023-05-03T07:09:35;3.85;;;1.85;;
20928;SDS011;21895;47.072;15.132;2023-05-03T07:12:09;4.05;;;2.10;;
20928;SDS011;21895;47.072;15.132;2023-05-03T07:14:37;3.87;;;2.00;;
20928;SDS011;21895;47.072;15.132;2023-05-03T07:17:04;4.75;;;1.60;;
20928;SDS011;21895;47.072;15.132;2023-05-03T07:19:31;3.72;;;1.33;;
20928;SDS011;21895;47.072;15.132;2023-05-03T07:21:58;3.60;;;2.05;;
20928;SDS011;21895;47.072;15.132;2023-05-03T07:24:25;3.95;;;2.05;;
20928;SDS011;21895;47.072;15.132;2023-05-03T07:26:52;7.05;;;1.90;;
20928;SDS011;21895;47.072;15.132;2023-05-03T07:29:18;2.33;;;1.67;;
20928;SDS011;21895;47.072;15.132;2023-05-03T07:31:45;4.35;;;2.20;;
20928;SDS011;21895;47.072;15.132;2023-05-03T07:34:12;10.02;;;1.90;;
20928;SDS011;21895;47.072;15.132;2023-05-03T07:36:38;4.25;;;2.00;;
20928;SDS011;21895;47.072;15.132;2023-05-03T07:39:05;3.97;;;1.85;;
20928;SDS011;21895;47.072;15.132;2023-05-03T07:41:32;5.07;;;1.73;;
20928;SDS011;21895;47.072;15.132;2023-05-03T07:43:58;3.10;;;2.05;;
20928;SDS011;21895;47.072;15.132;2023-05-03T07:46:25;5.53;;;2.85;;
20928;SDS011;21895;47.072;15.132;2023-05-03T07:48:52;3.60;;;2.45;;
20928;SDS011;21895;47.072;15.132;2023-05-03T07:51:18;5.72;;;2.55;;
20928;SDS011;21895;47.072;15.132;2023-05-03T07:53:45;5.22;;;2.30;;
20928;SDS011;21895;47.072;15.132;2023-05-03T07:56:11;4.78;;;2.70;;
20928;SDS011;21895;47.072;15.132;2023-05-03T07:58:38;2.58;;;2.12;;
20928;SDS011;21895;47.072;15.132;2023-05-03T08:01:06;5.68;;;2.10;;
20928;SDS011;21895;47.072;15.132;2023-05-03T08:03:34;5.40;;;2.62;;
20928;SDS011;21895;47.072;15.132;2023-05-03T08:06:01;3.78;;;2.50;;
20928;SDS011;21895;47.072;15.132;2023-05-03T08:08:28;4.78;;;2.37;;
20928;SDS011;21895;47.072;15.132;2023-05-03T08:10:56;6.10;;;2.85;;
20928;SDS011;21895;47.072;15.132;2023-05-03T08:13:23;3.83;;;2.78;;
20928;SDS011;21895;47.072;15.132;2023-05-03T08:15:49;5.78;;;2.60;;
20928;SDS011;21895;47.072;15.132;2023-05-03T08:18:16;4.62;;;2.45;;
20928;SDS011;21895;47.072;15.132;2023-05-03T08:20:43;7.87;;;2.30;;
20928;SDS011;21895;47.072;15.132;2023-05-03T08:23:11;5.43;;;2.33;;
20928;SDS011;21895;47.072;15.132;2023-05-03T08:25:38;3.25;;;2.50;;
20928;SDS011;21895;47.072;15.132;2023-05-03T08:28:05;4.00;;;2.50;;
20928;SDS011;21895;47.072;15.132;2023-05-03T08:30:33;3.85;;;2.12;;
20928;SDS011;21895;47.072;15.132;2023-05-03T08:33:00;6.00;;;2.50;;
20928;SDS011;21895;47.072;15.132;2023-05-03T08:35:26;6.55;;;3.72;;
20928;SDS011;21895;47.072;15.132;2023-05-03T08:37:53;7.95;;;2.50;;
20928;SDS011;21895;47.072;15.132;2023-05-03T08:40:20;9.13;;;2.28;;
20928;SDS011;21895;47.072;15.132;2023-05-03T08:42:47;9.45;;;2.90;;
20928;SDS011;21895;47.072;15.132;2023-05-03T08:45:15;6.62;;;2.47;;
20928;SDS011;21895;47.072;15.132;2023-05-03T08:47:42;5.78;;;2.60;;
20928;SDS011;21895;47.072;15.132;2023-05-03T08:50:10;5.80;;;2.90;;
20928;SDS011;21895;47.072;15.132;2023-05-03T08:52:39;5.22;;;2.45;;
20928;SDS011;21895;47.072;15.132;2023-05-03T08:55:08;8.20;;;3.10;;
20928;SDS011;21895;47.072;15.132;2023-05-03T08:57:35;9.57;;;2.78;;
20928;SDS011;21895;47.072;15.132;2023-05-03T09:00:02;7.03;;;2.47;;
20928;SDS011;21895;47.072;15.132;2023-05-03T09:02:31;6.30;;;2.62;;
20928;SDS011;21895;47.072;15.132;2023-05-03T09:05:04;5.85;;;2.55;;
20928;SDS011;21895;47.072;15.132;2023-05-03T09:09:32;3.65;;;2.30;;
20928;SDS011;21895;47.072;15.132;2023-05-03T09:11:58;3.83;;;2.70;;
20928;SDS011;21895;47.072;15.132;2023-05-03T09:14:25;2.87;;;2.58;;
20928;SDS011;21895;47.072;15.132;2023-05-03T09:16:52;6.03;;;2.70;;
20928;SDS011;21895;47.072;15.132;2023-05-03T09:19:19;3.87;;;2.65;;
20928;SDS011;21895;47.072;15.132;2023-05-03T09:21:46;3.42;;;2.35;;
20928;SDS011;21895;47.072;15.132;2023-05-03T09:24:19;10.73;;;2.60;;
20928;SDS011;21895;47.072;15.132;2023-05-03T09:26:48;3.20;;;2.70;;
20928;SDS011;21895;47.072;15.132;2023-05-03T09:29:30;7.87;;;2.70;;
20928;SDS011;21895;47.072;15.132;2023-05-03T09:32:02;8.05;;;2.60;;
20928;SDS011;21895;47.072;15.132;2023-05-03T09:34:30;3.35;;;2.58;;
20928;SDS011;21895;47.072;15.132;2023-05-03T09:36:57;4.07;;;2.70;;
20928;SDS011;21895;47.072;15.132;2023-05-03T09:39:24;4.57;;;2.80;;
20928;SDS011;21895;47.072;15.132;2023-05-03T09:41:50;3.72;;;2.70;;
20928;SDS011;21895;47.072;15.132;2023-05-03T09:44:17;3.12;;;2.60;;
20928;SDS011;21895;47.072;15.132;2023-05-03T09:49:33;4.15;;;2.50;;
20928;SDS011;21895;47.072;15.132;2023-05-03T09:52:01;5.90;;;2.47;;
20928;SDS011;21895;47.072;15.132;2023-05-03T09:54:29;3.15;;;2.65;;
20928;SDS011;21895;47.072;15.132;2023-05-03T09:56:56;3.10;;;2.62;;
20928;SDS011;21895;47.072;15.132;2023-05-03T09:59:23;12.40;;;2.40;;
20928;SDS011;21895;47.072;15.132;2023-05-03T10:01:50;3.22;;;2.50;;
20928;SDS011;21895;47.072;15.132;2023-05-03T10:04:24;4.25;;;2.30;;
20928;SDS011;21895;47.072;15.132;2023-05-03T10:07:00;2.33;;;2.12;;
20928;SDS011;21895;47.072;15.132;2023-05-03T10:09:39;4.35;;;2.67;;
20928;SDS011;21895;47.072;15.132;2023-05-03T10:12:10;3.33;;;2.55;;
20928;SDS011;21895;47.072;15.132;2023-05-03T10:14:44;4.25;;;2.60;;
20928;SDS011;21895;47.072;15.132;2023-05-03T10:17:24;3.58;;;2.53;;
20928;SDS011;21895;47.072;15.132;2023-05-03T10:20:27;3.05;;;2.70;;
20928;SDS011;21895;47.072;15.132;2023-05-03T10:23:16;3.78;;;2.47;;
20928;SDS011;21895;47.072;15.132;2023-05-03T10:28:47;3.05;;;2.50;;
20928;SDS011;21895;47.072;15.132;2023-05-03T10:34:21;9.25;;;2.97;;
20928;SDS011;21895;47.072;15.132;2023-05-03T10:36:50;5.30;;;3.10;;
20928;SDS011;21895;47.072;15.132;2023-05-03T10:39:18;3.78;;;2.72;;
20928;SDS011;21895;47.072;15.132;2023-05-03T10:41:58;7.75;;;2.72;;
20928;SDS011;21895;47.072;15.132;2023-05-03T10:44:38;3.90;;;3.00;;
20928;SDS011;21895;47.072;15.132;2023-05-03T10:47:16;8.95;;;2.85;;
20928;SDS011;21895;47.072;15.132;2023-05-03T10:49:46;3.37;;;2.85;;
20928;SDS011;21895;47.072;15.132;2023-05-03T10:52:48;3.30;;;3.00;;
20928;SDS011;21895;47.072;15.132;2023-05-03T10:55:19;4.18;;;3.30;;
20928;SDS011;21895;47.072;15.132;2023-05-03T10:57:50;4.60;;;3.20;;
20928;SDS011;21895;47.072;15.132;2023-05-03T11:03:33;3.80;;;3.25;;
20928;SDS011;21895;47.072;15.132;2023-05-03T11:07:34;5.07;;;3.47;;
20928;SDS011;21895;47.072;15.132;2023-05-03T11:10:14;7.65;;;3.87;;
20928;SDS011;21895;47.072;15.132;2023-05-03T11:12:43;6.78;;;3.75;;
20928;SDS011;21895;47.072;15.132;2023-05-03T11:15:10;4.00;;;3.60;;
20928;SDS011;21895;47.072;15.132;2023-05-03T11:17:37;4.62;;;3.70;;
20928;SDS011;21895;47.072;15.132;2023-05-03T11:20:07;3.90;;;3.50;;
20928;SDS011;21895;47.072;15.132;2023-05-03T11:22:34;4.95;;;3.83;;
20928;SDS011;21895;47.072;15.132;2023-05-03T11:25:01;4.37;;;3.30;;
20928;SDS011;21895;47.072;15.132;2023-05-03T11:27:28;8.00;;;4.03;;
20928;SDS011;21895;47.072;15.132;2023-05-03T11:29:55;3.78;;;3.20;;
20928;SDS011;21895;47.072;15.132;2023-05-03T11:32:27;4.82;;;3.40;;
20928;SDS011;21895;47.072;15.132;2023-05-03T11:34:55;4.07;;;3.47;;
20928;SDS011;21895;47.072;15.132;2023-05-03T11:37:23;4.87;;;3.45;;
20928;SDS011;21895;47.072;15.132;2023-05-03T11:39:51;5.65;;;3.75;;
20928;SDS011;21895;47.072;15.132;2023-05-03T11:42:18;5.10;;;3.55;;
20928;SDS011;21895;47.072;15.132;2023-05-03T11:44:44;4.72;;;3.40;;
20928;SDS011;21895;47.072;15.132;2023-05-03T11:47:11;5.10;;;3.50;;
20928;SDS011;21895;47.072;15.132;2023-05-03T11:49:37;3.70;;;3.40;;
20928;SDS011;21895;47.072;15.132;2023-05-03T11:52:04;4.12;;;3.45;;
20928;SDS011;21895;47.072;15.132;2023-05-03T11:54:31;4.50;;;3.75;;
20928;SDS011;21895;47.072;15.132;2023-05-03T11:56:57;7.12;;;3.70;;
20928;SDS011;21895;47.072;15.132;2023-05-03T11:59:35;6.37;;;4.10;;
20928;SDS011;21895;47.072;15.132;2023-05-03T12:02:05;7.95;;;3.90;;
20928;SDS011;21895;47.072;15.132;2023-05-03T12:04:35;4.78;;;3.80;;
20928;SDS011;21895;47.072;15.132;2023-05-03T12:07:10;5.65;;;3.92;;
20928;SDS011;21895;47.072;15.132;2023-05-03T12:09:40;4.85;;;4.03;;
20928;SDS011;21895;47.072;15.132;2023-05-03T12:12:16;4.65;;;3.80;;
20928;SDS011;21895;47.072;15.132;2023-05-03T12:14:59;4.65;;;3.80;;
20928;SDS011;21895;47.072;15.132;2023-05-03T12:17:36;6.50;;;4.07;;
20928;SDS011;21895;47.072;15.132;2023-05-03T12:20:19;8.02;;;4.25;;
20928;SDS011;21895;47.072;15.132;2023-05-03T12:22:51;5.32;;;3.75;;
20928;SDS011;21895;47.072;15.132;2023-05-03T12:25:24;8.27;;;4.35;;
20928;SDS011;21895;47.072;15.132;2023-05-03T12:27:55;5.10;;;4.10;;
20928;SDS011;21895;47.072;15.132;2023-05-03T12:30:28;4.47;;;3.90;;
20928;SDS011;21895;47.072;15.132;2023-05-03T12:32:59;7.60;;;4.62;;
20928;SDS011;21895;47.072;15.132;2023-05-03T12:35:29;4.82;;;3.95;;
20928;SDS011;21895;47.072;15.132;2023-05-03T12:37:59;6.00;;;4.07;;
20928;SDS011;21895;47.072;15.132;2023-05-03T12:40:30;6.40;;;4.07;;
20928;SDS011;21895;47.072;15.132;2023-05-03T12:43:00;6.35;;;4.15;;
20928;SDS011;21895;47.072;15.132;2023-05-03T12:45:28;6.70;;;4.40;;
20928;SDS011;21895;47.072;15.132;2023-05-03T12:47:59;4.95;;;4.05;;
20928;SDS011;21895;47.072;15.132;2023-05-03T12:50:27;6.68;;;4.00;;
20928;SDS011;21895;47.072;15.132;2023-05-03T12:52:57;5.03;;;3.85;;
20928;SDS011;21895;47.072;15.132;2023-05-03T12:55:28;6.25;;;3.92;;
20928;SDS011;21895;47.072;15.132;2023-05-03T12:57:59;8.93;;;6.12;;
20928;SDS011;21895;47.072;15.132;2023-05-03T13:00:30;7.12;;;5.80;;
20928;SDS011;21895;47.072;15.132;2023-05-03T13:03:02;8.52;;;5.95;;
20928;SDS011;21895;47.072;15.132;2023-05-03T13:05:32;8.25;;;5.43;;
20928;SDS011;21895;47.072;15.132;2023-05-03T13:08:02;10.50;;;6.20;;
20928;SDS011;21895;47.072;15.132;2023-05-03T13:10:35;11.38;;;6.05;;
20928;SDS011;21895;47.072;15.132;2023-05-03T13:13:03;9.48;;;6.25;;
20928;SDS011;21895;47.072;15.132;2023-05-03T13:15:29;7.43;;;5.35;;
20928;SDS011;21895;47.072;15.132;2023-05-03T13:17:56;8.98;;;6.28;;
20928;SDS011;21895;47.072;15.132;2023-05-03T13:20:26;8.20;;;5.68;;
20928;SDS011;21895;47.072;15.132;2023-05-03T13:22:53;13.68;;;6.18;;
20928;SDS011;21895;47.072;15.132;2023-05-03T13:25:20;8.60;;;6.20;;
20928;SDS011;21895;47.072;15.132;2023-05-03T13:27:46;10.48;;;6.78;;
20928;SDS011;21895;47.072;15.132;2023-05-03T13:30:15;12.25;;;6.40;;
20928;SDS011;21895;47.072;15.132;2023-05-03T13:32:41;10.50;;;6.83;;
20928;SDS011;21895;47.072;15.132;2023-05-03T13:35:08;11.57;;;6.43;;
20928;SDS011;21895;47.072;15.132;2023-05-03T13:37:35;10.93;;;6.72;;
20928;SDS011;21895;47.072;15.132;2023-05-03T13:40:01;9.63;;;6.35;;
20928;SDS011;21895;47.072;15.132;2023-05-03T13:42:29;9.82;;;6.15;;
20928;SDS011;21895;47.072;15.132;2023-05-03T13:44:55;12.27;;;7.93;;
20928;SDS011;21895;47.072;15.132;2023-05-03T13:47:23;11.12;;;6.00;;
20928;SDS011;21895;47.072;15.132;2023-05-03T13:49:54;9.07;;;6.03;;
20928;SDS011;21895;47.072;15.132;2023-05-03T13:52:22;21.12;;;6.62;;
20928;SDS011;21895;47.072;15.132;2023-05-03T13:54:49;9.55;;;6.57;;
20928;SDS011;21895;47.072;15.132;2023-05-03T13:57:16;10.70;;;6.72;;
20928;SDS011;21895;47.072;15.132;2023-05-03T13:59:43;10.90;;;6.78;;
20928;SDS011;21895;47.072;15.132;2023-05-03T14:02:10;15.88;;;6.20;;
20928;SDS011;21895;47.072;15.132;2023-05-03T14:04:36;10.33;;;6.63;;
20928;SDS011;21895;47.072;15.132;2023-05-03T14:07:03;9.60;;;6.75;;
20928;SDS011;21895;47.072;15.132;2023-05-03T14:09:30;9.20;;;6.10;;
20928;SDS011;21895;47.072;15.132;2023-05-03T14:11:56;8.02;;;6.18;;
20928;SDS011;21895;47.072;15.132;2023-05-03T14:14:25;9.75;;;6.78;;
20928;SDS011;21895;47.072;15.132;2023-05-03T14:16:52;9.75;;;6.00;;
20928;SDS011;21895;47.072;15.132;2023-05-03T14:19:18;9.40;;;6.53;;
20928;SDS011;21895;47.072;15.132;2023-05-03T14:21:45;9.02;;;6.20;;
20928;SDS011;21895;47.072;15.132;2023-05-03T14:24:14;7.80;;;6.00;;
20928;SDS011;21895;47.072;15.132;2023-05-03T14:26:41;8.82;;;6.15;;
20928;SDS011;21895;47.072;15.132;2023-05-03T14:29:07;10.98;;;6.90;;
20928;SDS011;21895;47.072;15.132;2023-05-03T14:31:34;7.15;;;5.70;;
20928;SDS011;21895;47.072;15.132;2023-05-03T14:34:00;11.52;;;6.43;;
20928;SDS011;21895;47.072;15.132;2023-05-03T14:36:27;13.52;;;6.62;;
20928;SDS011;21895;47.072;15.132;2023-05-03T14:38:59;9.32;;;6.20;;
20928;SDS011;21895;47.072;15.132;2023-05-03T14:41:25;9.73;;;6.30;;
20928;SDS011;21895;47.072;15.132;2023-05-03T14:43:52;8.60;;;6.07;;
20928;SDS011;21895;47.072;15.132;2023-05-03T14:46:18;9.02;;;6.18;;
20928;SDS011;21895;47.072;15.132;2023-05-03T14:48:45;10.35;;;6.05;;
20928;SDS011;21895;47.072;15.132;2023-05-03T14:51:11;11.48;;;5.43;;
20928;SDS011;21895;47.072;15.132;2023-05-03T14:53:39;9.05;;;6.20;;
20928;SDS011;21895;47.072;15.132;2023-05-03T14:56:05;8.52;;;5.68;;
20928;SDS011;21895;47.072;15.132;2023-05-03T14:58:32;9.35;;;5.75;;
20928;SDS011;21895;47.072;15.132;2023-05-03T15:00:59;13.27;;;5.80;;
20928;SDS011;21895;47.072;15.132;2023-05-03T15:03:25;9.93;;;5.62;;
20928;SDS011;21895;47.072;15.132;2023-05-03T15:05:52;8.50;;;6.12;;
20928;SDS011;21895;47.072;15.132;2023-05-03T15:08:18;12.10;;;6.10;;
20928;SDS011;21895;47.072;15.132;2023-05-03T15:10:45;8.32;;;5.87;;